createdAt,value
2018-11-10T00:02:12.669Z,12.40
2018-11-10T00:04:40.825Z,12.40
2018-11-10T00:07:08.967Z,12.30
2018-11-10T00:09:37.097Z,12.30
2018-11-10T00:12:05.424Z,12.30
2018-11-10T00:14:33.590Z,12.20
2018-11-10T00:17:01.810Z,12.00
2018-11-10T00:19:30.040Z,12.00
2018-11-10T00:21:58.238Z,11.90
2018-11-10T00:24:26.349Z,11.80
2018-11-10T00:26:54.461Z,11.80
2018-11-10T00:29:22.751Z,11.70
2018-11-10T00:31:51.099Z,11.70
2018-11-10T00:34:19.340Z,11.70
2018-11-10T00:36:47.503Z,11.60
2018-11-10T00:39:15.651Z,11.70
2018-11-10T00:41:43.796Z,11.50
2018-11-10T00:44:11.921Z,11.60
2018-11-10T00:46:40.159Z,11.50
2018-11-10T00:49:08.274Z,11.60
2018-11-10T00:51:36.391Z,11.70
2018-11-10T00:54:04.892Z,11.50
2018-11-10T00:56:33.077Z,11.50
2018-11-10T00:59:01.258Z,11.50
2018-11-10T01:01:29.445Z,11.60
2018-11-10T01:03:57.602Z,11.50
2018-11-10T01:06:25.713Z,11.50
2018-11-10T01:08:53.937Z,11.20
2018-11-10T01:11:22.212Z,11.50
2018-11-10T01:13:50.492Z,11.60
2018-11-10T01:16:18.607Z,11.50
2018-11-10T01:18:46.733Z,11.30
2018-11-10T01:21:14.909Z,11.40
2018-11-10T01:23:43.025Z,11.20
2018-11-10T01:26:11.132Z,11.30
2018-11-10T01:28:39.302Z,11.00
2018-11-10T01:31:07.887Z,10.90
2018-11-10T01:33:35.985Z,10.90
2018-11-10T01:36:04.157Z,10.90
2018-11-10T01:38:32.264Z,11.00
2018-11-10T01:41:00.433Z,11.00
2018-11-10T01:43:28.650Z,11.20
2018-11-10T01:45:56.801Z,11.10
2018-11-10T01:48:25.061Z,11.10
2018-11-10T01:50:53.382Z,11.20
2018-11-10T01:53:21.581Z,11.20
2018-11-10T01:55:49.774Z,11.00
2018-11-10T01:58:17.899Z,11.00
2018-11-10T02:00:46.017Z,10.90
2018-11-10T02:03:14.200Z,11.00
2018-11-10T02:05:42.416Z,11.20
2018-11-10T02:08:10.622Z,11.10
2018-11-10T02:10:38.797Z,11.20
2018-11-10T02:13:07.357Z,11.20
2018-11-10T02:15:35.466Z,11.30
2018-11-10T02:18:03.590Z,11.50
2018-11-10T02:20:31.702Z,11.20
2018-11-10T02:22:59.833Z,11.20
2018-11-10T02:25:28.019Z,11.00
2018-11-10T02:27:56.237Z,11.00
2018-11-10T02:30:25.231Z,11.10
2018-11-10T02:32:53.369Z,11.00
2018-11-10T02:35:21.575Z,11.10
2018-11-10T02:37:49.798Z,11.00
2018-11-10T02:40:18.146Z,11.20
2018-11-10T02:42:46.429Z,11.30
2018-11-10T02:45:15.361Z,11.10
2018-11-10T02:47:44.341Z,11.10
2018-11-10T02:50:12.668Z,11.30
2018-11-10T02:52:40.816Z,11.40
2018-11-10T02:55:09.747Z,11.40
2018-11-10T02:57:37.857Z,11.50
2018-11-10T03:00:07.085Z,11.30
2018-11-10T03:02:35.384Z,11.30
2018-11-10T03:05:03.506Z,11.20
2018-11-10T03:07:31.640Z,11.40
2018-11-10T03:09:59.749Z,11.50
2018-11-10T03:12:27.911Z,11.60
2018-11-10T03:14:56.727Z,11.60
2018-11-10T03:17:24.846Z,11.50
2018-11-10T03:19:53.051Z,11.50
2018-11-10T03:22:21.958Z,11.40
2018-11-10T03:24:50.066Z,11.40
2018-11-10T03:27:18.289Z,11.40
2018-11-10T03:29:47.110Z,11.40
2018-11-10T03:32:15.370Z,11.30
2018-11-10T03:34:43.486Z,11.30
2018-11-10T03:37:11.706Z,11.30
2018-11-10T03:39:39.960Z,11.10
2018-11-10T03:42:08.070Z,11.20
2018-11-10T03:44:36.211Z,11.20
2018-11-10T03:47:05.005Z,11.20
2018-11-10T03:49:33.173Z,11.20
2018-11-10T03:52:01.385Z,11.10
2018-11-10T03:54:29.599Z,11.10
2018-11-10T03:56:57.818Z,11.20
2018-11-10T03:59:25.939Z,11.20
2018-11-10T04:01:54.097Z,11.20
2018-11-10T04:04:22.229Z,11.30
2018-11-10T04:06:50.545Z,11.20
2018-11-10T04:09:24.470Z,11.20
2018-11-10T04:11:52.794Z,11.30
2018-11-10T04:14:20.924Z,11.30
2018-11-10T04:16:49.060Z,11.20
2018-11-10T04:19:17.198Z,11.30
2018-11-10T04:21:45.338Z,11.40
2018-11-10T04:24:13.828Z,11.40
2018-11-10T04:26:41.997Z,11.50
2018-11-10T04:29:10.114Z,11.50
2018-11-10T04:31:38.375Z,11.30
2018-11-10T04:34:06.893Z,11.50
2018-11-10T04:36:35.042Z,11.40
2018-11-10T04:39:03.482Z,11.50
2018-11-10T04:41:31.586Z,11.50
2018-11-10T04:43:59.778Z,11.60
2018-11-10T04:46:27.891Z,11.50
2018-11-10T04:48:56.009Z,11.50
2018-11-10T04:51:24.174Z,11.50
2018-11-10T04:53:52.562Z,11.60
2018-11-10T04:56:20.783Z,11.70
2018-11-10T04:58:48.969Z,11.70
2018-11-10T05:01:17.108Z,11.70
2018-11-10T05:03:45.201Z,11.70
2018-11-10T05:06:13.369Z,11.80
2018-11-10T05:08:41.563Z,11.70
2018-11-10T05:11:09.718Z,11.70
2018-11-10T05:13:37.938Z,11.60
2018-11-10T05:16:06.177Z,11.60
2018-11-10T05:18:34.297Z,11.50
2018-11-10T05:21:02.528Z,11.60
2018-11-10T05:23:30.835Z,11.60
2018-11-10T05:25:59.149Z,11.40
2018-11-10T05:28:27.266Z,11.60
2018-11-10T05:30:55.423Z,11.70
2018-11-10T05:33:23.630Z,11.90
2018-11-10T05:35:51.950Z,11.80
2018-11-10T05:38:20.148Z,11.60
2018-11-10T05:40:48.498Z,11.60
2018-11-10T05:43:16.747Z,11.70
2018-11-10T05:45:44.927Z,11.70
2018-11-10T05:48:13.085Z,11.70
2018-11-10T05:50:41.261Z,11.60
2018-11-10T05:53:09.370Z,11.70
2018-11-10T05:55:37.524Z,11.80
2018-11-10T05:58:05.718Z,11.80
2018-11-10T06:00:34.686Z,11.60
2018-11-10T06:03:02.827Z,11.70
2018-11-10T06:05:30.926Z,11.70
2018-11-10T06:07:59.075Z,11.60
2018-11-10T06:10:27.277Z,11.60
2018-11-10T06:12:55.473Z,11.50
2018-11-10T06:15:23.620Z,11.60
2018-11-10T06:17:52.045Z,11.60
2018-11-10T06:20:20.328Z,11.60
2018-11-10T06:22:48.494Z,11.60
2018-11-10T06:25:16.665Z,11.80
2018-11-10T06:27:44.887Z,11.90
2018-11-10T06:30:13.064Z,11.70
2018-11-10T06:32:42.359Z,11.90
2018-11-10T06:35:10.898Z,11.80
2018-11-10T06:37:39.430Z,11.80
2018-11-10T06:40:09.085Z,11.90
2018-11-10T06:42:37.879Z,12.00
2018-11-10T06:45:06.253Z,12.00
2018-11-10T06:47:34.534Z,12.00
2018-11-10T06:50:02.922Z,11.90
2018-11-10T06:52:31.812Z,12.00
2018-11-10T06:55:00.245Z,11.90
2018-11-10T06:57:28.468Z,11.80
2018-11-10T06:59:56.753Z,11.90
2018-11-10T07:02:25.009Z,11.90
2018-11-10T07:04:53.499Z,12.00
2018-11-10T07:07:21.922Z,11.90
2018-11-10T07:09:50.163Z,11.90
2018-11-10T07:12:18.315Z,11.90
2018-11-10T07:14:48.603Z,11.90
2018-11-10T07:17:16.862Z,11.90
2018-11-10T07:19:45.475Z,11.80
2018-11-10T07:22:13.794Z,11.90
2018-11-10T07:24:43.919Z,11.90
2018-11-10T07:27:13.756Z,11.90
2018-11-10T07:29:42.045Z,11.90
2018-11-10T07:32:10.162Z,11.80
2018-11-10T07:34:38.475Z,11.90
2018-11-10T07:37:06.685Z,12.10
2018-11-10T07:39:34.882Z,12.00
2018-11-10T07:42:03.122Z,11.90
2018-11-10T07:44:31.542Z,12.00
2018-11-10T07:46:59.726Z,12.00
2018-11-10T07:49:27.999Z,12.10
2018-11-10T07:51:56.321Z,11.90
2018-11-10T07:54:24.538Z,11.90
2018-11-10T07:56:52.710Z,12.00
2018-11-10T07:59:20.882Z,11.80
2018-11-10T08:01:49.213Z,11.90
2018-11-10T08:04:17.479Z,11.80
2018-11-10T08:06:45.610Z,11.90
2018-11-10T08:09:13.778Z,12.00
2018-11-10T08:11:42.186Z,12.00
2018-11-10T08:14:11.180Z,12.00
2018-11-10T08:16:39.643Z,11.90
2018-11-10T08:19:08.218Z,11.90
2018-11-10T08:21:36.462Z,12.00
2018-11-10T08:24:05.173Z,11.90
2018-11-10T08:26:34.787Z,11.90
2018-11-10T08:29:03.066Z,11.90
2018-11-10T08:31:31.234Z,12.00
2018-11-10T08:33:59.414Z,12.00
2018-11-10T08:36:27.557Z,12.10
2018-11-10T08:38:55.860Z,12.00
2018-11-10T08:41:24.012Z,12.10
2018-11-10T08:43:52.198Z,12.10
2018-11-10T08:46:20.529Z,12.20
2018-11-10T08:48:50.446Z,12.20
2018-11-10T08:51:18.576Z,12.30
2018-11-10T08:53:46.754Z,12.30
2018-11-10T08:56:15.043Z,12.20
2018-11-10T08:58:43.370Z,12.20
2018-11-10T09:01:12.224Z,12.30
2018-11-10T09:03:40.423Z,12.20
2018-11-10T09:06:08.540Z,12.20
2018-11-10T09:08:36.710Z,12.20
2018-11-10T09:11:05.217Z,12.20
2018-11-10T09:13:33.751Z,12.20
2018-11-10T09:16:01.891Z,12.30
2018-11-10T09:18:37.326Z,12.10
2018-11-10T09:21:06.039Z,12.00
2018-11-10T09:23:34.310Z,12.10
2018-11-10T09:26:02.533Z,12.10
2018-11-10T09:28:30.801Z,12.10
2018-11-10T09:30:59.092Z,12.00
2018-11-10T09:33:27.399Z,12.10
2018-11-10T09:35:56.136Z,11.90
2018-11-10T09:38:24.273Z,12.10
2018-11-10T09:40:52.634Z,12.00
2018-11-10T09:43:20.993Z,11.90
2018-11-10T09:45:49.144Z,12.20
2018-11-10T09:48:17.355Z,12.10
2018-11-10T09:50:45.758Z,12.10
2018-11-10T09:53:17.014Z,12.20
2018-11-10T09:55:46.202Z,12.10
2018-11-10T09:58:15.900Z,12.10
2018-11-10T10:00:44.113Z,12.20
2018-11-10T10:03:12.246Z,12.20
2018-11-10T10:05:40.633Z,12.20
2018-11-10T10:08:08.975Z,12.10
2018-11-10T10:10:37.859Z,12.20
2018-11-10T10:13:07.679Z,12.20
2018-11-10T10:15:36.005Z,12.30
2018-11-10T10:18:05.324Z,12.40
2018-11-10T10:20:34.494Z,12.40
2018-11-10T10:23:03.267Z,12.50
2018-11-10T10:25:32.827Z,12.60
2018-11-10T10:28:01.297Z,12.60
2018-11-10T10:30:30.305Z,12.60
2018-11-10T10:32:59.021Z,12.60
2018-11-10T10:35:27.280Z,12.60
2018-11-10T10:37:55.454Z,12.70
2018-11-10T10:40:23.649Z,12.80
2018-11-10T10:42:51.834Z,12.80
2018-11-10T10:45:22.614Z,12.70
2018-11-10T10:47:51.610Z,12.80
2018-11-10T10:50:20.945Z,12.80
2018-11-10T10:52:49.963Z,12.90
2018-11-10T10:55:18.934Z,12.90
2018-11-10T10:57:48.139Z,13.00
2018-11-10T11:00:21.774Z,13.10
2018-11-10T11:02:58.336Z,13.10
2018-11-10T11:05:31.758Z,13.20
2018-11-10T11:08:00.341Z,13.10
2018-11-10T11:10:28.593Z,13.20
2018-11-10T11:12:56.875Z,13.20
2018-11-10T11:15:25.190Z,13.20
2018-11-10T11:17:54.206Z,13.30
2018-11-10T11:20:22.498Z,13.30
2018-11-10T11:22:51.438Z,13.30
2018-11-10T11:25:19.770Z,13.30
2018-11-10T11:27:48.691Z,13.40
2018-11-10T11:30:16.997Z,13.50
2018-11-10T11:32:45.531Z,13.50
2018-11-10T11:35:14.155Z,13.50
2018-11-10T11:37:42.777Z,13.60
2018-11-10T11:40:12.705Z,13.60
2018-11-10T11:42:40.990Z,13.60
2018-11-10T11:45:10.482Z,13.60
2018-11-10T11:47:38.922Z,13.60
2018-11-10T11:50:09.093Z,13.70
2018-11-10T11:52:37.513Z,13.70
2018-11-10T11:55:06.659Z,13.80
2018-11-10T11:57:35.477Z,13.80
2018-11-10T12:00:04.047Z,13.70
2018-11-10T12:02:34.010Z,13.80
2018-11-10T12:05:02.513Z,13.80
2018-11-10T12:07:30.771Z,13.70
2018-11-10T12:09:58.990Z,13.70
2018-11-10T12:12:27.113Z,13.80
2018-11-10T12:14:56.393Z,13.80
2018-11-10T12:17:24.604Z,13.80
2018-11-10T12:19:56.296Z,13.80
2018-11-10T12:22:25.199Z,13.80
2018-11-10T12:24:54.429Z,13.70
2018-11-10T12:27:25.221Z,13.70
2018-11-10T12:29:53.453Z,13.70
2018-11-10T12:32:21.650Z,13.70
2018-11-10T12:34:51.977Z,13.70
2018-11-10T12:37:20.156Z,13.70
2018-11-10T12:39:48.338Z,13.80
2018-11-10T12:42:16.535Z,13.80
2018-11-10T12:44:44.794Z,13.80
2018-11-10T12:47:13.203Z,13.80
2018-11-10T12:49:42.177Z,13.80
2018-11-10T12:52:10.715Z,13.80
2018-11-10T12:54:38.955Z,13.70
2018-11-10T12:57:08.113Z,13.60
2018-11-10T12:59:36.787Z,13.60
2018-11-10T13:02:05.080Z,13.60
2018-11-10T13:04:33.884Z,13.70
2018-11-10T13:07:02.310Z,13.60
2018-11-10T13:09:30.638Z,13.60
2018-11-10T13:11:59.542Z,13.50
2018-11-10T13:14:31.718Z,13.50
2018-11-10T13:17:01.401Z,13.50
2018-11-10T13:19:29.585Z,13.50
2018-11-10T13:21:58.775Z,13.50
2018-11-10T13:24:26.946Z,13.50
2018-11-10T13:26:55.171Z,13.50
2018-11-10T13:29:23.466Z,13.50
2018-11-10T13:31:51.695Z,13.50
2018-11-10T13:34:20.204Z,13.50
2018-11-10T13:36:49.256Z,13.60
2018-11-10T13:39:17.375Z,13.50
2018-11-10T13:41:46.189Z,13.50
2018-11-10T13:44:14.444Z,13.50
2018-11-10T13:46:42.666Z,13.50
2018-11-10T13:49:10.871Z,13.50
2018-11-10T13:51:39.171Z,13.50
2018-11-10T13:54:07.257Z,13.50
2018-11-10T13:56:35.441Z,13.40
2018-11-10T13:59:03.790Z,13.40
2018-11-10T14:01:32.079Z,13.40
2018-11-10T14:04:00.215Z,13.40
2018-11-10T14:06:28.400Z,13.40
2018-11-10T14:08:56.542Z,13.30
2018-11-10T14:11:24.726Z,13.40
2018-11-10T14:13:53.713Z,13.30
2018-11-10T14:16:21.870Z,13.30
2018-11-10T14:18:51.133Z,13.30
2018-11-10T14:21:19.445Z,13.40
2018-11-10T14:23:47.634Z,13.30
2018-11-10T14:26:15.810Z,13.30
2018-11-10T14:28:43.964Z,13.30
2018-11-10T14:31:18.791Z,13.30
2018-11-10T14:33:46.996Z,13.30
2018-11-10T14:36:15.258Z,13.30
2018-11-10T14:38:43.490Z,13.30
2018-11-10T14:41:12.880Z,13.30
2018-11-10T14:43:42.197Z,13.30
2018-11-10T14:46:10.568Z,13.20
2018-11-10T14:48:38.741Z,13.20
2018-11-10T14:51:08.255Z,13.30
2018-11-10T14:53:37.537Z,13.30
2018-11-10T14:56:06.225Z,13.20
2018-11-10T14:58:34.453Z,13.30
2018-11-10T15:01:02.578Z,13.30
2018-11-10T15:03:30.756Z,13.30
2018-11-10T15:05:59.909Z,13.30
2018-11-10T15:08:28.054Z,13.30
2018-11-10T15:10:56.214Z,13.20
2018-11-10T15:13:24.427Z,13.20
2018-11-10T15:15:54.746Z,13.20
2018-11-10T15:18:23.030Z,13.20
2018-11-10T15:20:51.290Z,13.10
2018-11-10T15:23:19.628Z,13.10
2018-11-10T15:25:47.953Z,13.10
2018-11-10T15:28:16.142Z,13.10
2018-11-10T15:30:44.409Z,13.00
2018-11-10T15:33:12.829Z,13.10
2018-11-10T15:35:41.087Z,13.10
2018-11-10T15:38:10.030Z,13.10
2018-11-10T15:40:39.325Z,13.10
2018-11-10T15:43:07.675Z,12.90
2018-11-10T15:45:35.896Z,12.90
2018-11-10T15:48:04.129Z,12.90
2018-11-10T15:50:32.663Z,12.90
2018-11-10T15:53:01.017Z,13.00
2018-11-10T15:55:29.787Z,12.90
2018-11-10T15:57:59.198Z,12.90
2018-11-10T16:00:27.357Z,13.00
2018-11-10T16:02:55.549Z,13.00
2018-11-10T16:05:24.462Z,12.90
2018-11-10T16:07:52.813Z,13.00
2018-11-10T16:10:21.100Z,13.00
2018-11-10T16:12:49.276Z,13.00
2018-11-10T16:15:18.142Z,13.00
2018-11-10T16:17:46.390Z,13.00
2018-11-10T16:20:16.318Z,13.00
2018-11-10T16:22:46.227Z,13.00
2018-11-10T16:25:16.451Z,13.00
2018-11-10T16:27:44.802Z,12.90
2018-11-10T16:30:14.596Z,12.90
2018-11-10T16:32:43.277Z,13.00
2018-11-10T16:35:11.840Z,13.00
2018-11-10T16:37:40.193Z,13.00
2018-11-10T16:40:12.268Z,13.00
2018-11-10T16:42:41.357Z,12.90
2018-11-10T16:45:11.782Z,12.90
2018-11-10T16:47:39.973Z,12.90
2018-11-10T16:50:08.935Z,12.90
2018-11-10T16:52:37.462Z,12.90
2018-11-10T16:55:06.660Z,13.00
2018-11-10T16:57:35.720Z,12.90
2018-11-10T17:00:04.399Z,12.80
2018-11-10T17:02:32.582Z,13.00
2018-11-10T17:05:00.840Z,12.90
2018-11-10T17:07:29.057Z,12.90
2018-11-10T17:10:01.508Z,12.90
2018-11-10T17:12:29.804Z,13.00
2018-11-10T17:14:57.982Z,13.00
2018-11-10T17:17:26.273Z,12.90
2018-11-10T17:19:54.450Z,12.80
2018-11-10T17:22:22.833Z,13.00
2018-11-10T17:24:51.187Z,13.00
2018-11-10T17:27:19.520Z,13.00
2018-11-10T17:29:47.762Z,12.90
2018-11-10T17:32:15.994Z,12.80
2018-11-10T17:34:44.557Z,12.80
2018-11-10T17:37:13.362Z,12.90
2018-11-10T17:39:41.672Z,12.90
2018-11-10T17:42:11.118Z,12.80
2018-11-10T17:44:39.777Z,12.80
2018-11-10T17:47:08.251Z,12.90
2018-11-10T17:49:36.574Z,12.90
2018-11-10T17:52:05.327Z,12.80
2018-11-10T17:54:34.512Z,12.80
2018-11-10T17:57:03.166Z,12.90
2018-11-10T17:59:31.278Z,12.80
2018-11-10T18:02:00.034Z,12.80
2018-11-10T18:04:29.164Z,12.80
2018-11-10T18:06:57.313Z,12.80
2018-11-10T18:09:26.512Z,12.90
2018-11-10T18:11:54.743Z,12.90
2018-11-10T18:14:22.964Z,12.90
2018-11-10T18:16:51.181Z,12.90
2018-11-10T18:19:19.284Z,12.90
2018-11-10T18:21:50.026Z,12.80
2018-11-10T18:24:18.286Z,12.90
2018-11-10T18:26:46.562Z,12.90
2018-11-10T18:29:14.724Z,12.80
2018-11-10T18:31:43.125Z,12.90
2018-11-10T18:34:11.325Z,12.90
2018-11-10T18:36:39.573Z,12.90
2018-11-10T18:39:09.192Z,13.00
2018-11-10T18:41:37.380Z,13.00
2018-11-10T18:44:06.448Z,12.90
2018-11-10T18:46:34.645Z,12.70
2018-11-10T18:49:03.030Z,12.90
2018-11-10T18:51:31.796Z,12.80
2018-11-10T18:53:59.944Z,12.80
2018-11-10T18:56:28.073Z,12.80
2018-11-10T18:58:56.238Z,12.80
2018-11-10T19:01:24.382Z,12.70
2018-11-10T19:03:52.587Z,12.60
2018-11-10T19:06:20.937Z,12.60
2018-11-10T19:08:49.085Z,12.70
2018-11-10T19:11:17.245Z,12.80
2018-11-10T19:13:45.940Z,12.80
2018-11-10T19:16:14.125Z,12.90
2018-11-10T19:18:42.293Z,12.80
2018-11-10T19:21:10.541Z,12.80
2018-11-10T19:23:38.657Z,12.90
2018-11-10T19:26:06.942Z,12.90
2018-11-10T19:28:35.098Z,12.90
2018-11-10T19:31:03.255Z,12.70
2018-11-10T19:33:32.289Z,12.70
2018-11-10T19:36:01.582Z,12.80
2018-11-10T19:38:29.757Z,12.80
2018-11-10T19:40:57.925Z,12.80
2018-11-10T19:43:27.222Z,12.80
2018-11-10T19:45:55.401Z,12.80
2018-11-10T19:48:23.665Z,12.80
2018-11-10T19:50:51.993Z,12.70
2018-11-10T19:53:20.085Z,12.80
2018-11-10T19:55:48.224Z,12.90
2018-11-10T19:58:16.384Z,12.90
2018-11-10T20:00:45.478Z,12.80
2018-11-10T20:03:14.249Z,12.90
2018-11-10T20:05:43.277Z,12.90
2018-11-10T20:08:11.490Z,12.90
2018-11-10T20:10:39.685Z,12.80
2018-11-10T20:13:07.843Z,12.90
2018-11-10T20:15:35.992Z,12.90
2018-11-10T20:18:04.136Z,13.00
2018-11-10T20:20:32.599Z,13.00
2018-11-10T20:23:01.203Z,13.00
2018-11-10T20:25:30.307Z,12.90
2018-11-10T20:27:58.499Z,12.90
2018-11-10T20:30:26.637Z,13.00
2018-11-10T20:32:54.909Z,13.00
2018-11-10T20:35:23.048Z,13.10
2018-11-10T20:37:51.314Z,13.00
2018-11-10T20:40:19.438Z,13.00
2018-11-10T20:42:47.720Z,13.00
2018-11-10T20:45:17.521Z,13.00
2018-11-10T20:47:45.753Z,13.00
2018-11-10T20:50:14.484Z,13.00
2018-11-10T20:52:42.696Z,13.00
2018-11-10T20:55:11.462Z,13.00
2018-11-10T20:57:39.902Z,13.00
2018-11-10T21:00:11.033Z,13.20
2018-11-10T21:02:40.500Z,13.10
2018-11-10T21:05:09.921Z,13.20
2018-11-10T21:07:38.120Z,13.10
2018-11-10T21:10:08.265Z,13.10
2018-11-10T21:12:36.538Z,13.20
2018-11-10T21:15:04.755Z,13.20
2018-11-10T21:17:33.914Z,13.20
2018-11-10T21:20:02.884Z,13.20
2018-11-10T21:22:30.983Z,13.30
2018-11-10T21:24:59.162Z,13.20
2018-11-10T21:27:27.325Z,13.30
2018-11-10T21:29:55.585Z,13.30
2018-11-10T21:32:23.665Z,13.30
2018-11-10T21:34:51.853Z,13.20
2018-11-10T21:37:20.301Z,13.30
2018-11-10T21:39:48.398Z,13.30
2018-11-10T21:42:16.610Z,13.30
2018-11-10T21:44:45.249Z,13.30
2018-11-10T21:47:13.433Z,13.30
2018-11-10T21:49:42.530Z,13.30
2018-11-10T21:52:10.498Z,13.30
2018-11-10T21:54:38.797Z,13.20
2018-11-10T21:57:06.942Z,13.20
2018-11-10T21:59:35.746Z,13.20
2018-11-10T22:02:03.920Z,13.20
2018-11-10T22:04:32.098Z,13.20
2018-11-10T22:07:00.262Z,13.20
2018-11-10T22:09:28.639Z,13.20
2018-11-10T22:11:56.626Z,13.10
2018-11-10T22:14:24.878Z,13.10
2018-11-10T22:16:53.112Z,13.10
2018-11-10T22:19:21.245Z,13.10
2018-11-10T22:21:49.405Z,13.20
2018-11-10T22:24:17.573Z,13.10
2018-11-10T22:26:45.749Z,13.10
2018-11-10T22:29:14.021Z,13.10
2018-11-10T22:31:42.201Z,13.10
2018-11-10T22:34:10.345Z,13.20
2018-11-10T22:36:38.573Z,13.10
2018-11-10T22:39:07.970Z,13.10
2018-11-10T22:41:36.192Z,13.10
2018-11-10T22:44:04.881Z,13.20
2018-11-10T22:46:34.016Z,13.20
2018-11-10T22:49:02.210Z,13.20
2018-11-10T22:51:30.423Z,13.30
2018-11-10T22:53:58.643Z,13.30
2018-11-10T22:56:26.817Z,13.20
2018-11-10T22:58:54.941Z,13.20
2018-11-10T23:01:27.336Z,13.20
2018-11-10T23:03:55.541Z,13.20
2018-11-10T23:06:24.398Z,13.20
2018-11-10T23:08:53.185Z,13.20
2018-11-10T23:11:21.637Z,13.20
2018-11-10T23:13:49.942Z,13.20
2018-11-10T23:16:18.145Z,13.20
2018-11-10T23:18:46.324Z,13.30
2018-11-10T23:21:14.763Z,13.40
2018-11-10T23:23:43.269Z,13.30
2018-11-10T23:26:11.441Z,13.30
2018-11-10T23:28:39.703Z,13.30
2018-11-10T23:31:07.805Z,13.40
2018-11-10T23:33:35.961Z,13.40
2018-11-10T23:36:04.127Z,13.40
2018-11-10T23:38:32.277Z,13.40
2018-11-10T23:41:00.383Z,13.40
2018-11-10T23:43:28.866Z,13.40
2018-11-10T23:45:57.085Z,13.40
2018-11-10T23:48:25.238Z,13.40
2018-11-10T23:50:53.357Z,13.40
2018-11-10T23:53:22.161Z,13.50
2018-11-10T23:55:50.323Z,13.50
2018-11-10T23:58:18.717Z,13.50
